createdAt,value
2022-11-14T00:00:22.621Z,96.99
2022-11-14T00:02:49.140Z,97.18
2022-11-14T00:05:15.807Z,96.95
2022-11-14T00:07:42.179Z,96.79
2022-11-14T00:10:08.650Z,96.68
2022-11-14T00:12:35.116Z,96.96
2022-11-14T00:15:01.538Z,97.07
2022-11-14T00:17:27.925Z,96.85
2022-11-14T00:19:54.278Z,97.13
2022-11-14T00:22:20.670Z,97.38
2022-11-14T00:24:47.577Z,97.37
2022-11-14T00:27:13.951Z,96.98
2022-11-14T00:29:40.303Z,96.71
2022-11-14T00:32:07.562Z,96.88
2022-11-14T00:34:34.546Z,96.78
2022-11-14T00:37:01.121Z,97.33
2022-11-14T00:39:27.585Z,97.08
2022-11-14T00:41:54.041Z,96.91
2022-11-14T00:44:20.489Z,97.55
2022-11-14T00:46:46.838Z,97.74
2022-11-14T00:49:13.258Z,98.08
2022-11-14T00:51:39.665Z,98.00
2022-11-14T00:54:06.188Z,98.19
2022-11-14T00:56:32.611Z,98.10
2022-11-14T00:58:59.132Z,98.17
2022-11-14T01:01:25.670Z,98.29
2022-11-14T01:03:52.483Z,98.65
2022-11-14T01:06:19.911Z,98.32
2022-11-14T01:08:46.419Z,98.75
2022-11-14T01:11:17.417Z,98.85
2022-11-14T01:13:44.163Z,98.74
2022-11-14T01:16:11.048Z,98.85
2022-11-14T01:18:39.383Z,99.01
2022-11-14T01:21:11.183Z,98.99
2022-11-14T01:23:37.709Z,99.24
2022-11-14T01:26:09.311Z,98.98
2022-11-14T01:28:36.346Z,99.61
2022-11-14T01:31:20.454Z,99.40
2022-11-14T01:33:50.314Z,99.73
2022-11-14T01:36:17.360Z,99.77
2022-11-14T01:38:43.703Z,99.76
2022-11-14T01:41:14.258Z,99.82
2022-11-14T01:43:41.104Z,100.00
2022-11-14T01:46:14.056Z,100.00
2022-11-14T01:48:49.385Z,100.00
2022-11-14T01:51:25.086Z,100.00
2022-11-14T01:53:55.193Z,100.00
2022-11-14T01:56:40.458Z,100.00
2022-11-14T01:59:09.838Z,100.00
2022-11-14T02:01:44.536Z,100.00
2022-11-14T02:04:15.308Z,100.00
2022-11-14T02:06:42.310Z,100.00
2022-11-14T02:09:08.713Z,100.00
2022-11-14T02:11:43.548Z,100.00
2022-11-14T02:14:10.917Z,100.00
2022-11-14T02:16:41.117Z,100.00
2022-11-14T02:19:08.488Z,100.00
2022-11-14T02:21:35.118Z,100.00
2022-11-14T02:24:01.799Z,100.00
2022-11-14T02:26:30.192Z,100.00
2022-11-14T02:28:58.364Z,100.00
2022-11-14T02:31:24.705Z,100.00
2022-11-14T02:33:51.169Z,100.00
2022-11-14T02:36:17.538Z,100.00
2022-11-14T02:38:43.887Z,100.00
2022-11-14T02:41:10.223Z,100.00
2022-11-14T02:43:36.640Z,100.00
2022-11-14T02:46:05.824Z,100.00
2022-11-14T02:48:32.659Z,100.00
2022-11-14T02:50:59.215Z,100.00
2022-11-14T02:53:25.611Z,100.00
2022-11-14T02:55:51.995Z,100.00
2022-11-14T02:58:18.447Z,100.00
2022-11-14T03:01:13.521Z,100.00
2022-11-14T03:03:31.230Z,100.00
2022-11-14T03:06:01.519Z,100.00
2022-11-14T03:08:28.501Z,100.00
2022-11-14T03:10:55.842Z,100.00
2022-11-14T03:13:22.598Z,100.00
2022-11-14T03:15:48.974Z,100.00
2022-11-14T03:18:15.372Z,100.00
2022-11-14T03:20:41.717Z,100.00
2022-11-14T03:23:08.079Z,100.00
2022-11-14T03:25:34.434Z,100.00
2022-11-14T03:28:00.798Z,100.00
2022-11-14T03:30:27.212Z,100.00
2022-11-14T03:32:55.653Z,100.00
2022-11-14T03:35:22.053Z,100.00
2022-11-14T03:37:49.562Z,100.00
2022-11-14T03:40:17.295Z,100.00
2022-11-14T03:42:43.644Z,100.00
2022-11-14T03:45:10.474Z,100.00
2022-11-14T03:47:36.844Z,100.00
2022-11-14T03:50:03.388Z,100.00
2022-11-14T03:52:29.761Z,100.00
2022-11-14T03:54:56.163Z,100.00
2022-11-14T03:57:22.585Z,100.00
2022-11-14T03:59:48.946Z,100.00
2022-11-14T04:02:15.350Z,100.00
2022-11-14T04:04:41.797Z,100.00
2022-11-14T04:07:08.209Z,100.00
2022-11-14T04:09:34.653Z,100.00
2022-11-14T04:12:01.080Z,100.00
2022-11-14T04:14:27.457Z,100.00
2022-11-14T04:16:53.848Z,100.00
2022-11-14T04:19:20.225Z,100.00
2022-11-14T04:21:46.597Z,100.00
2022-11-14T04:24:13.022Z,100.00
2022-11-14T04:26:39.393Z,100.00
2022-11-14T04:29:05.772Z,100.00
2022-11-14T04:31:32.194Z,100.00
2022-11-14T04:33:58.676Z,100.00
2022-11-14T04:36:25.002Z,100.00
2022-11-14T04:38:51.850Z,100.00
2022-11-14T04:41:18.327Z,100.00
2022-11-14T04:43:50.508Z,100.00
2022-11-14T04:46:17.529Z,100.00
2022-11-14T04:48:43.938Z,100.00
2022-11-14T04:51:10.409Z,100.00
2022-11-14T04:53:36.851Z,100.00
2022-11-14T04:56:04.151Z,100.00
2022-11-14T04:58:30.947Z,100.00
2022-11-14T05:00:57.949Z,100.00
2022-11-14T05:03:25.146Z,100.00
2022-11-14T05:05:51.758Z,100.00
2022-11-14T05:08:18.238Z,100.00
2022-11-14T05:10:45.625Z,100.00
2022-11-14T05:13:12.985Z,100.00
2022-11-14T05:15:39.364Z,100.00
2022-11-14T05:18:05.792Z,100.00
2022-11-14T05:20:32.205Z,100.00
2022-11-14T05:22:58.581Z,100.00
2022-11-14T05:25:25.092Z,100.00
2022-11-14T05:27:51.516Z,100.00
2022-11-14T05:30:17.914Z,100.00
2022-11-14T05:32:44.784Z,100.00
2022-11-14T05:35:11.450Z,100.00
2022-11-14T05:37:38.219Z,100.00
2022-11-14T05:40:06.164Z,100.00
2022-11-14T05:42:32.621Z,100.00
2022-11-14T05:44:58.953Z,100.00
2022-11-14T05:47:25.332Z,100.00
2022-11-14T05:49:51.813Z,100.00
2022-11-14T05:52:18.226Z,100.00
2022-11-14T05:54:44.583Z,100.00
2022-11-14T05:57:10.954Z,100.00
2022-11-14T05:59:37.350Z,100.00
2022-11-14T06:02:03.892Z,100.00
2022-11-14T06:04:30.357Z,100.00
2022-11-14T06:06:56.977Z,100.00
2022-11-14T06:09:23.439Z,100.00
2022-11-14T06:11:49.786Z,100.00
2022-11-14T06:14:16.359Z,100.00
2022-11-14T06:16:42.698Z,100.00
2022-11-14T06:19:09.082Z,100.00
2022-11-14T06:21:35.445Z,100.00
2022-11-14T06:24:01.845Z,100.00
2022-11-14T06:26:32.680Z,100.00
2022-11-14T06:29:00.523Z,100.00
2022-11-14T06:31:27.934Z,100.00
2022-11-14T06:33:54.505Z,100.00
2022-11-14T06:36:20.880Z,100.00
2022-11-14T06:38:47.386Z,100.00
2022-11-14T06:41:17.265Z,100.00
2022-11-14T06:43:45.968Z,100.00
2022-11-14T06:46:15.364Z,100.00
2022-11-14T06:48:42.522Z,100.00
2022-11-14T06:51:11.228Z,100.00
2022-11-14T06:53:38.186Z,100.00
2022-11-14T06:56:07.475Z,100.00
2022-11-14T06:58:39.039Z,100.00
2022-11-14T07:01:13.640Z,100.00
2022-11-14T07:03:40.831Z,100.00
2022-11-14T07:06:08.145Z,100.00
2022-11-14T07:08:35.139Z,100.00
2022-11-14T07:11:04.156Z,100.00
2022-11-14T07:13:31.384Z,100.00
2022-11-14T07:15:57.756Z,100.00
2022-11-14T07:18:24.384Z,100.00
2022-11-14T07:20:56.508Z,100.00
2022-11-14T07:23:23.181Z,100.00
2022-11-14T07:25:49.682Z,100.00
2022-11-14T07:28:16.078Z,100.00
2022-11-14T07:30:42.463Z,100.00
2022-11-14T07:33:08.810Z,100.00
2022-11-14T07:35:35.139Z,100.00
2022-11-14T07:38:03.113Z,100.00
2022-11-14T07:40:29.784Z,100.00
2022-11-14T07:43:00.546Z,100.00
2022-11-14T07:45:28.219Z,100.00
2022-11-14T07:47:59.296Z,100.00
2022-11-14T07:50:26.931Z,100.00
2022-11-14T07:52:54.948Z,100.00
2022-11-14T07:55:22.064Z,100.00
2022-11-14T07:57:49.548Z,100.00
2022-11-14T08:00:16.949Z,100.00
2022-11-14T08:02:43.350Z,100.00
2022-11-14T08:05:11.167Z,100.00
2022-11-14T08:07:37.609Z,100.00
2022-11-14T08:10:04.682Z,100.00
2022-11-14T08:12:31.072Z,100.00
2022-11-14T08:14:57.435Z,100.00
2022-11-14T08:17:23.940Z,100.00
2022-11-14T08:19:50.329Z,100.00
2022-11-14T08:22:16.710Z,100.00
2022-11-14T08:24:43.058Z,100.00
2022-11-14T08:27:09.536Z,100.00
2022-11-14T08:29:35.870Z,100.00
2022-11-14T08:32:02.209Z,100.00
2022-11-14T08:34:29.207Z,100.00
2022-11-14T08:36:57.050Z,100.00
2022-11-14T08:39:23.710Z,100.00
2022-11-14T08:41:50.143Z,99.49
2022-11-14T08:44:16.475Z,99.08
2022-11-14T08:46:42.848Z,98.75
2022-11-14T08:49:09.175Z,98.64
2022-11-14T08:51:36.578Z,98.33
2022-11-14T08:54:03.666Z,98.29
2022-11-14T08:56:30.025Z,97.76
2022-11-14T08:58:56.507Z,97.50
2022-11-14T09:01:22.859Z,97.51
2022-11-14T09:03:49.728Z,97.08
2022-11-14T09:06:17.204Z,96.92
2022-11-14T09:08:43.525Z,96.64
2022-11-14T09:11:10.225Z,96.31
2022-11-14T09:13:37.123Z,96.32
2022-11-14T09:16:03.572Z,96.16
2022-11-14T09:18:30.895Z,96.03
2022-11-14T09:21:06.139Z,96.18
2022-11-14T09:23:33.798Z,96.06
2022-11-14T09:26:07.878Z,95.90
2022-11-14T09:28:34.890Z,95.54
2022-11-14T09:31:07.056Z,95.03
2022-11-14T09:33:35.016Z,95.19
2022-11-14T09:36:07.212Z,95.55
2022-11-14T09:38:38.447Z,95.26
2022-11-14T09:41:08.107Z,94.85
2022-11-14T09:43:49.702Z,94.32
2022-11-14T09:46:33.107Z,93.97
2022-11-14T09:48:59.795Z,93.51
2022-11-14T09:51:34.609Z,93.29
2022-11-14T09:54:16.319Z,93.09
2022-11-14T09:56:42.752Z,93.16
2022-11-14T09:59:11.866Z,93.46
2022-11-14T10:01:50.352Z,92.98
2022-11-14T10:04:54.606Z,92.44
2022-11-14T10:07:26.994Z,92.14
2022-11-14T10:10:26.378Z,91.58
2022-11-14T10:13:10.815Z,91.37
2022-11-14T10:15:54.410Z,91.69
2022-11-14T10:18:45.913Z,90.91
2022-11-14T10:21:44.677Z,90.50
2022-11-14T10:24:29.263Z,89.63
2022-11-14T10:27:07.618Z,88.33
2022-11-14T10:29:58.821Z,88.01
2022-11-14T10:32:28.079Z,86.75
2022-11-14T10:35:04.615Z,87.34
2022-11-14T10:37:40.499Z,86.49
2022-11-14T10:40:22.202Z,87.19
2022-11-14T10:43:01.593Z,86.14
2022-11-14T10:45:36.481Z,85.84
2022-11-14T10:48:24.918Z,84.92
2022-11-14T10:51:07.070Z,85.41
2022-11-14T10:53:46.759Z,85.91
2022-11-14T10:56:14.650Z,85.08
2022-11-14T10:58:48.539Z,85.22
2022-11-14T11:01:36.537Z,85.39
2022-11-14T11:04:13.948Z,84.11
2022-11-14T11:06:40.779Z,83.94
2022-11-14T11:09:33.983Z,82.97
2022-11-14T11:12:02.807Z,82.91
2022-11-14T11:14:29.781Z,82.62
2022-11-14T11:17:11.314Z,82.85
2022-11-14T11:19:39.179Z,83.23
2022-11-14T11:22:22.932Z,81.98
2022-11-14T11:24:49.286Z,81.52
2022-11-14T11:27:19.014Z,82.10
2022-11-14T11:29:45.454Z,81.38
2022-11-14T11:32:24.218Z,82.01
2022-11-14T11:34:51.681Z,80.92
2022-11-14T11:37:32.580Z,81.52
2022-11-14T11:40:02.917Z,81.82
2022-11-14T11:45:34.598Z,81.14
2022-11-14T11:48:21.624Z,82.06
2022-11-14T11:50:49.299Z,81.27
2022-11-14T11:53:24.257Z,80.74
2022-11-14T11:55:55.076Z,81.87
2022-11-14T11:58:46.329Z,81.28
2022-11-14T12:01:14.569Z,81.27
2022-11-14T12:03:48.964Z,81.90
2022-11-14T12:06:24.794Z,81.78
2022-11-14T12:09:01.996Z,81.08
2022-11-14T12:11:32.291Z,81.60
2022-11-14T12:14:01.534Z,81.53
2022-11-14T12:16:52.706Z,81.43
2022-11-14T12:19:34.830Z,81.60
2022-11-14T12:22:22.397Z,82.21
2022-11-14T12:25:07.253Z,82.02
2022-11-14T12:27:42.977Z,82.28
2022-11-14T12:30:14.756Z,83.07
2022-11-14T12:32:47.674Z,83.32
2022-11-14T12:35:19.768Z,82.65
2022-11-14T12:37:54.231Z,83.08
2022-11-14T12:40:30.760Z,83.24
2022-11-14T12:42:58.393Z,83.18
2022-11-14T12:45:40.020Z,84.01
2022-11-14T12:48:23.150Z,83.75
2022-11-14T12:50:49.644Z,84.64
2022-11-14T12:53:37.439Z,84.99
2022-11-14T12:56:31.454Z,84.74
2022-11-14T12:59:21.966Z,85.06
2022-11-14T13:02:10.907Z,86.12
2022-11-14T13:05:09.303Z,85.82
2022-11-14T13:07:54.497Z,85.90
2022-11-14T13:10:30.566Z,85.82
2022-11-14T13:13:25.665Z,86.00
2022-11-14T13:16:13.301Z,86.08
2022-11-14T13:19:20.433Z,85.89
2022-11-14T13:22:12.630Z,86.34
2022-11-14T13:25:01.189Z,86.48
2022-11-14T13:27:52.370Z,86.39
2022-11-14T13:30:15.610Z,86.81
2022-11-14T13:32:41.877Z,86.51
2022-11-14T13:35:31.962Z,86.67
2022-11-14T13:38:13.641Z,86.57
2022-11-14T13:40:58.719Z,86.54
2022-11-14T13:43:47.951Z,86.48
2022-11-14T13:46:33.432Z,86.75
2022-11-14T13:49:11.559Z,86.92
2022-11-14T13:51:43.639Z,87.01
2022-11-14T13:54:17.139Z,87.43
2022-11-14T13:57:11.478Z,87.95
2022-11-14T14:00:01.282Z,87.84
2022-11-14T14:02:36.719Z,88.01
2022-11-14T14:05:21.407Z,88.10
2022-11-14T14:08:00.079Z,87.87
2022-11-14T14:10:41.836Z,88.25
2022-11-14T14:13:13.550Z,88.65
2022-11-14T14:15:49.848Z,88.33
2022-11-14T14:18:45.423Z,87.92
2022-11-14T14:21:22.162Z,87.61
2022-11-14T14:24:14.236Z,87.82
2022-11-14T14:27:05.491Z,87.69
2022-11-14T14:30:03.692Z,87.95
2022-11-14T14:32:30.266Z,88.18
2022-11-14T14:34:58.545Z,88.33
2022-11-14T14:37:27.575Z,88.63
2022-11-14T14:40:05.760Z,88.64
2022-11-14T14:42:40.690Z,88.86
2022-11-14T14:45:17.051Z,89.31
2022-11-14T14:47:48.156Z,89.49
2022-11-14T14:50:19.815Z,89.51
2022-11-14T14:52:46.628Z,89.79
2022-11-14T14:55:24.606Z,89.98
2022-11-14T14:57:50.942Z,89.97
2022-11-14T15:00:22.102Z,89.73
2022-11-14T15:02:50.081Z,90.20
2022-11-14T15:05:27.636Z,90.30
2022-11-14T15:07:57.207Z,89.87
2022-11-14T15:10:32.134Z,90.51
2022-11-14T15:12:59.318Z,90.33
2022-11-14T15:15:27.320Z,90.47
2022-11-14T15:17:56.071Z,90.28
2022-11-14T15:20:30.098Z,90.26
2022-11-14T15:23:08.351Z,90.46
2022-11-14T15:25:34.994Z,90.56
2022-11-14T15:28:02.355Z,90.73
2022-11-14T15:30:36.662Z,90.81
2022-11-14T15:33:05.483Z,90.97
2022-11-14T15:35:37.152Z,90.66
2022-11-14T15:38:42.505Z,90.53
2022-11-14T15:41:30.419Z,90.67
2022-11-14T15:44:02.088Z,91.15
2022-11-14T15:46:35.216Z,91.04
2022-11-14T15:49:07.903Z,91.28
2022-11-14T15:51:39.232Z,91.10
2022-11-14T15:54:06.763Z,91.07
2022-11-14T15:56:33.185Z,91.39
2022-11-14T15:58:59.609Z,91.28
2022-11-14T16:01:26.509Z,91.33
2022-11-14T16:03:52.935Z,91.24
2022-11-14T16:06:19.374Z,91.38
2022-11-14T16:08:46.157Z,91.51
2022-11-14T16:11:13.381Z,91.46
2022-11-14T16:13:39.857Z,91.51
2022-11-14T16:16:06.371Z,91.56
2022-11-14T16:18:32.697Z,91.86
2022-11-14T16:20:59.581Z,92.10
2022-11-14T16:23:25.918Z,91.98
2022-11-14T16:25:52.365Z,92.45
2022-11-14T16:28:18.707Z,92.63
2022-11-14T16:30:45.312Z,92.78
2022-11-14T16:33:11.738Z,92.77
2022-11-14T16:35:38.350Z,93.10
2022-11-14T16:38:04.986Z,93.84
2022-11-14T16:40:31.350Z,93.66
2022-11-14T16:42:59.435Z,93.90
2022-11-14T16:45:26.801Z,93.91
2022-11-14T16:47:53.213Z,94.19
2022-11-14T16:50:19.990Z,94.47
2022-11-14T16:52:46.399Z,94.74
2022-11-14T16:55:13.074Z,94.37
2022-11-14T16:57:40.334Z,94.70
2022-11-14T17:00:09.306Z,94.80
2022-11-14T17:02:35.658Z,95.09
2022-11-14T17:05:02.134Z,95.47
2022-11-14T17:07:33.335Z,95.52
2022-11-14T17:10:00.436Z,96.15
2022-11-14T17:12:27.407Z,96.09
2022-11-14T17:14:54.696Z,96.23
2022-11-14T17:17:21.434Z,96.73
2022-11-14T17:19:47.825Z,96.86
2022-11-14T17:22:15.458Z,96.99
2022-11-14T17:24:42.237Z,97.49
2022-11-14T17:27:09.404Z,97.93
2022-11-14T17:29:35.849Z,97.88
2022-11-14T17:32:04.070Z,98.01
2022-11-14T17:34:31.013Z,98.14
2022-11-14T17:36:57.593Z,98.50
2022-11-14T17:39:24.167Z,98.17
2022-11-14T17:41:50.519Z,98.40
2022-11-14T17:44:16.952Z,98.71
2022-11-14T17:46:43.376Z,98.52
2022-11-14T17:49:09.753Z,98.91
2022-11-14T17:51:36.311Z,98.89
2022-11-14T17:54:02.681Z,98.98
2022-11-14T17:56:29.011Z,99.23
2022-11-14T17:58:55.349Z,99.20
2022-11-14T18:01:24.284Z,99.42
2022-11-14T18:03:50.763Z,99.41
2022-11-14T18:06:19.824Z,100.00
2022-11-14T18:08:47.008Z,100.00
2022-11-14T18:11:15.511Z,100.00
2022-11-14T18:13:42.107Z,100.00
2022-11-14T18:16:16.243Z,100.00
2022-11-14T18:18:42.798Z,100.00
2022-11-14T18:21:18.835Z,100.00
2022-11-14T18:23:51.070Z,100.00
2022-11-14T18:26:18.612Z,100.00
2022-11-14T18:28:45.079Z,100.00
2022-11-14T18:31:11.999Z,100.00
2022-11-14T18:33:39.547Z,100.00
2022-11-14T18:36:10.142Z,100.00
2022-11-14T18:38:36.530Z,100.00
2022-11-14T18:41:06.939Z,100.00
2022-11-14T18:43:34.143Z,100.00
2022-11-14T18:46:05.852Z,100.00
2022-11-14T18:48:32.337Z,100.00
2022-11-14T18:51:03.662Z,100.00
2022-11-14T18:53:35.045Z,100.00
2022-11-14T18:56:09.950Z,100.00
2022-11-14T18:58:39.728Z,100.00
2022-11-14T19:01:10.530Z,100.00
2022-11-14T19:03:36.934Z,100.00
2022-11-14T19:06:05.027Z,100.00
2022-11-14T19:08:31.360Z,100.00
2022-11-14T19:11:02.238Z,100.00
2022-11-14T19:13:28.907Z,100.00
2022-11-14T19:16:04.071Z,100.00
2022-11-14T19:18:31.411Z,100.00
2022-11-14T19:21:02.773Z,100.00
2022-11-14T19:23:29.642Z,100.00
2022-11-14T19:26:00.694Z,100.00
2022-11-14T19:28:29.337Z,100.00
2022-11-14T19:31:03.333Z,100.00
2022-11-14T19:33:30.798Z,100.00
2022-11-14T19:35:58.003Z,100.00
2022-11-14T19:38:24.689Z,100.00
2022-11-14T19:40:51.049Z,100.00
2022-11-14T19:43:18.160Z,100.00
2022-11-14T19:45:44.512Z,100.00
2022-11-14T19:48:11.002Z,100.00
2022-11-14T19:50:37.350Z,100.00
2022-11-14T19:53:04.096Z,100.00
2022-11-14T19:55:31.129Z,100.00
2022-11-14T19:57:58.982Z,100.00
2022-11-14T20:00:29.258Z,100.00
2022-11-14T20:02:55.635Z,100.00
2022-11-14T20:05:21.967Z,100.00
2022-11-14T20:07:48.330Z,100.00
2022-11-14T20:10:14.669Z,100.00
2022-11-14T20:12:41.070Z,100.00
2022-11-14T20:15:07.841Z,100.00
2022-11-14T20:17:34.188Z,100.00
2022-11-14T20:20:00.596Z,100.00
2022-11-14T20:22:26.938Z,100.00
2022-11-14T20:24:53.279Z,100.00
2022-11-14T20:27:19.616Z,100.00
2022-11-14T20:29:45.960Z,100.00
2022-11-14T20:32:15.795Z,100.00
2022-11-14T20:34:42.352Z,100.00
2022-11-14T20:37:11.407Z,100.00
2022-11-14T20:39:38.417Z,100.00
2022-11-14T20:42:04.788Z,100.00
2022-11-14T20:44:31.132Z,100.00
2022-11-14T20:46:57.464Z,100.00
2022-11-14T20:49:23.845Z,100.00
2022-11-14T20:51:50.220Z,100.00
2022-11-14T20:54:16.559Z,100.00
2022-11-14T20:56:42.885Z,100.00
2022-11-14T20:59:09.229Z,100.00
2022-11-14T21:01:40.453Z,100.00
2022-11-14T21:04:09.769Z,100.00
2022-11-14T21:06:36.160Z,100.00
2022-11-14T21:09:02.579Z,100.00
2022-11-14T21:11:28.923Z,100.00
2022-11-14T21:13:58.920Z,100.00
2022-11-14T21:16:39.249Z,100.00
2022-11-14T21:19:07.192Z,100.00
2022-11-14T21:21:35.854Z,100.00
2022-11-14T21:24:02.349Z,100.00
2022-11-14T21:26:31.350Z,100.00
2022-11-14T21:29:00.719Z,100.00
2022-11-14T21:31:33.551Z,100.00
2022-11-14T21:34:01.970Z,100.00
2022-11-14T21:36:44.265Z,100.00
2022-11-14T21:39:14.857Z,100.00
2022-11-14T21:41:42.446Z,100.00
2022-11-14T21:44:11.689Z,100.00
2022-11-14T21:46:38.013Z,100.00
2022-11-14T21:49:04.381Z,100.00
2022-11-14T21:51:30.750Z,100.00
2022-11-14T21:53:58.536Z,100.00
2022-11-14T21:56:27.585Z,100.00
2022-11-14T21:59:12.410Z,100.00
2022-11-14T22:01:59.069Z,100.00
2022-11-14T22:04:25.892Z,100.00
2022-11-14T22:06:52.752Z,100.00
2022-11-14T22:09:19.321Z,100.00
2022-11-14T22:11:45.709Z,100.00
2022-11-14T22:14:12.156Z,100.00
2022-11-14T22:16:38.522Z,100.00
2022-11-14T22:19:05.920Z,100.00
2022-11-14T22:21:32.417Z,100.00
2022-11-14T22:23:58.763Z,100.00
2022-11-14T22:26:25.198Z,100.00
2022-11-14T22:28:51.554Z,100.00
2022-11-14T22:31:23.094Z,100.00
2022-11-14T22:33:52.463Z,100.00
2022-11-14T22:36:24.463Z,100.00
2022-11-14T22:38:53.564Z,100.00
2022-11-14T22:41:24.354Z,100.00
2022-11-14T22:43:54.984Z,100.00
2022-11-14T22:46:21.783Z,100.00
2022-11-14T22:48:49.129Z,100.00
2022-11-14T22:51:19.595Z,100.00
2022-11-14T22:53:48.270Z,100.00
2022-11-14T22:56:15.752Z,100.00
2022-11-14T22:58:43.429Z,100.00
2022-11-14T23:01:18.635Z,100.00
2022-11-14T23:03:45.104Z,100.00
2022-11-14T23:06:13.733Z,100.00
2022-11-14T23:08:40.704Z,100.00
2022-11-14T23:11:10.627Z,100.00
2022-11-14T23:13:42.321Z,100.00
2022-11-14T23:16:14.004Z,100.00
2022-11-14T23:18:40.893Z,100.00
2022-11-14T23:21:13.435Z,100.00
2022-11-14T23:23:40.157Z,100.00
2022-11-14T23:26:09.489Z,100.00
2022-11-14T23:28:36.738Z,100.00
2022-11-14T23:31:03.492Z,100.00
2022-11-14T23:33:30.237Z,100.00
2022-11-14T23:35:56.970Z,100.00
2022-11-14T23:38:23.498Z,100.00
2022-11-14T23:40:53.316Z,100.00
2022-11-14T23:43:19.800Z,100.00
2022-11-14T23:45:48.166Z,100.00
2022-11-14T23:48:16.059Z,100.00
2022-11-14T23:50:42.986Z,100.00
2022-11-14T23:53:10.255Z,100.00
2022-11-14T23:55:36.972Z,100.00
2022-11-14T23:58:03.494Z,100.00
